Photometre #646[NE_1.6] OHP_OBSERVATOIRE AOT

File : 20221126_646.hum

26/11/2022,07:45:51,TEMP=8.3,BA=5.64,STAT.A=9.0,ExtBa=12.99
26/11/2022,07:50:28,TEMP=8.5,BA=5.64,STAT.A=9.0,ExtBa=12.99
26/11/2022,07:55:56,TEMP=8.6,BA=5.64,STAT.A=9.0,ExtBa=12.99
26/11/2022,08:02:33,TEMP=8.9,BA=5.64,STAT.A=9.0,ExtBa=12.99
26/11/2022,08:10:42,TEMP=9.4,BA=5.64,STAT.A=9.0,ExtBa=12.99
26/11/2022,08:20:59,TEMP=10.2,BA=5.64,STAT.A=9.0,ExtBa=12.99
26/11/2022,08:24:45,TEMP=10.6,BA=5.64,STAT.F,ExtBa=12.92
26/11/2022,08:34:30,TEMP=11.3,BA=5.60,STAT.b=9.0
26/11/2022,08:40:04,TEMP=11.6,BA=5.60,STAT.D=9.0,ExtBa=12.80
26/11/2022,08:54:44,TEMP=12.9,BA=5.64,STAT.D=9.0,ExtBa=13.02
26/11/2022,09:09:44,TEMP=12.2,BA=5.64,STAT.D=9.0,ExtBa=13.11
26/11/2022,09:24:46,TEMP=10.8,BA=5.64,STAT.F,ExtBa=13.11
26/11/2022,09:34:04,TEMP=10.9,BA=5.60,STAT.b=9.0
26/11/2022,09:40:04,TEMP=10.5,BA=5.60,STAT.D=9.0,ExtBa=12.83
26/11/2022,09:54:44,TEMP=10.8,BA=5.64,STAT.D=9.0,ExtBa=13.04
26/11/2022,10:09:44,TEMP=11.2,BA=5.64,STAT.D=9.0,ExtBa=13.12
26/11/2022,10:24:46,TEMP=12.6,BA=5.64,STAT.F,ExtBa=13.10
26/11/2022,10:40:32,TEMP=12.7,BA=5.60,STAT.D=9.0,ExtBa=12.66
26/11/2022,10:54:44,TEMP=12.9,BA=5.64,STAT.D=9.0,ExtBa=12.96
26/11/2022,11:09:44,TEMP=13.5,BA=5.64,STAT.D=9.0,ExtBa=13.04
26/11/2022,11:24:46,TEMP=14.2,BA=5.64,STAT.F,ExtBa=13.04
26/11/2022,11:41:07,TEMP=15.6,BA=5.60,STAT.D=9.0,ExtBa=12.65
26/11/2022,11:54:44,TEMP=16.8,BA=5.64,STAT.D=9.5,ExtBa=12.93
26/11/2022,12:09:44,TEMP=17.2,BA=5.64,STAT.D=9.5,ExtBa=13.00
26/11/2022,12:24:46,TEMP=16.7,BA=5.64,STAT.F,ExtBa=13.00
26/11/2022,12:41:36,TEMP=16.0,BA=5.56,STAT.D=9.5,ExtBa=12.61
26/11/2022,12:54:44,TEMP=16.3,BA=5.64,STAT.D=9.5,ExtBa=12.90
26/11/2022,13:09:44,TEMP=16.6,BA=5.64,STAT.D=9.5,ExtBa=12.97
26/11/2022,13:24:46,TEMP=16.1,BA=5.64,STAT.F,ExtBa=12.98
26/11/2022,13:34:14,TEMP=16.2,BA=5.56,STAT.b=9.5
26/11/2022,13:40:02,TEMP=15.8,BA=5.56,STAT.D=9.5,ExtBa=12.80
26/11/2022,13:54:44,TEMP=15.5,BA=5.64,STAT.D=9.5,ExtBa=12.95
26/11/2022,14:09:44,TEMP=14.8,BA=5.64,STAT.D=9.5,ExtBa=12.99
26/11/2022,14:24:45,TEMP=14.2,BA=5.64,STAT.F,ExtBa=12.99
26/11/2022,14:34:36,TEMP=13.8,BA=5.56,STAT.b=9.5
26/11/2022,14:36:21,TEMP=13.7,BA=5.56,STAT.A=9.0,ExtBa=12.68
26/11/2022,14:39:24,TEMP=13.6,BA=5.56,STAT.A=9.0,ExtBa=12.66
26/11/2022,14:46:57,TEMP=13.4,BA=5.56,STAT.A=9.0,ExtBa=12.80
26/11/2022,14:53:34,TEMP=13.4,BA=5.64,STAT.A=9.0,ExtBa=12.88
26/11/2022,14:59:02,TEMP=13.5,BA=5.64,STAT.A=9.0,ExtBa=12.90
26/11/2022,15:03:39,TEMP=13.5,BA=5.56,STAT.A=9.0,ExtBa=12.88